createdAt,value
2022-12-14T00:01:41.296Z,53.82
2022-12-14T00:06:42.910Z,53.11
2022-12-14T00:11:44.658Z,53.49
2022-12-14T00:16:46.237Z,53.13
2022-12-14T00:21:47.823Z,53.90
2022-12-14T00:26:50.558Z,53.00
2022-12-14T00:31:52.292Z,52.96
2022-12-14T00:36:55.549Z,52.54
2022-12-14T00:41:57.322Z,53.52
2022-12-14T00:46:59.138Z,52.73
2022-12-14T00:52:00.755Z,52.78
2022-12-14T00:57:02.351Z,53.51
2022-12-14T01:02:04.393Z,52.09
2022-12-14T01:07:06.084Z,52.67
2022-12-14T01:12:07.780Z,52.39
2022-12-14T01:17:09.526Z,53.19
2022-12-14T01:22:11.141Z,53.42
2022-12-14T01:27:12.876Z,52.34
2022-12-14T01:32:14.484Z,52.94
2022-12-14T01:37:16.310Z,53.11
2022-12-14T01:42:17.904Z,53.52
2022-12-14T01:47:26.762Z,52.37
2022-12-14T01:52:35.775Z,52.74
2022-12-14T01:57:54.916Z,51.70
2022-12-14T02:03:06.657Z,51.97
2022-12-14T02:08:09.526Z,51.01
2022-12-14T02:13:25.770Z,52.75
2022-12-14T02:18:29.756Z,52.94
2022-12-14T02:23:46.298Z,51.56
2022-12-14T02:29:06.483Z,52.28
2022-12-14T02:34:31.394Z,51.46
2022-12-14T02:39:41.696Z,51.54
2022-12-14T02:44:57.481Z,51.42
2022-12-14T02:50:20.427Z,51.80
2022-12-14T02:55:26.431Z,52.73
2022-12-14T03:00:32.264Z,52.19
2022-12-14T03:05:34.931Z,52.22
2022-12-14T03:10:40.792Z,52.43
2022-12-14T03:15:47.429Z,51.72
2022-12-14T03:20:52.212Z,52.69
2022-12-14T03:25:58.752Z,51.15
2022-12-14T03:31:09.031Z,51.81
2022-12-14T03:36:59.395Z,51.37
2022-12-14T03:42:24.128Z,50.08
2022-12-14T03:47:40.825Z,50.30
2022-12-14T03:53:09.716Z,52.02
2022-12-14T03:58:37.615Z,51.33
2022-12-14T04:03:54.167Z,52.27
2022-12-14T04:09:14.120Z,52.44
2022-12-14T04:14:45.207Z,52.91
2022-12-14T04:20:10.313Z,53.21
2022-12-14T04:25:41.727Z,53.07
2022-12-14T04:30:43.597Z,52.16
2022-12-14T04:35:45.779Z,51.79
2022-12-14T04:41:02.271Z,51.65
2022-12-14T04:46:27.839Z,51.60
2022-12-14T04:51:43.090Z,52.20
2022-12-14T04:56:52.455Z,52.40
2022-12-14T05:02:18.558Z,51.20
2022-12-14T05:07:34.019Z,52.15
2022-12-14T05:12:52.023Z,51.87
2022-12-14T05:17:54.430Z,53.44
2022-12-14T05:22:56.079Z,51.99
2022-12-14T05:27:57.850Z,52.43
2022-12-14T05:32:59.475Z,51.83
2022-12-14T05:38:01.054Z,52.68
2022-12-14T05:43:07.370Z,52.70
2022-12-14T05:48:09.152Z,51.38
2022-12-14T05:53:10.703Z,52.29
2022-12-14T05:58:12.296Z,51.32
2022-12-14T06:03:14.567Z,53.12
2022-12-14T06:08:16.149Z,51.55
2022-12-14T06:13:17.754Z,52.69
2022-12-14T06:18:19.824Z,53.13
2022-12-14T06:23:21.415Z,53.32
2022-12-14T06:28:23.672Z,53.79
2022-12-14T06:33:26.050Z,54.43
2022-12-14T06:38:27.981Z,54.49
2022-12-14T06:43:29.870Z,52.90
2022-12-14T06:48:31.675Z,53.22
2022-12-14T06:53:35.351Z,54.49
2022-12-14T06:58:37.650Z,56.49
2022-12-14T07:03:39.847Z,55.89
2022-12-14T07:08:41.605Z,55.36
2022-12-14T07:13:43.510Z,57.95
2022-12-14T07:18:45.142Z,57.08
2022-12-14T07:23:48.619Z,57.60
2022-12-14T07:28:51.683Z,55.92
2022-12-14T07:33:55.207Z,55.90
2022-12-14T07:38:57.516Z,56.87
2022-12-14T07:44:00.915Z,57.17
2022-12-14T07:49:03.292Z,56.77
2022-12-14T07:54:06.375Z,56.85
2022-12-14T07:59:12.115Z,55.90
2022-12-14T08:04:17.550Z,57.83
2022-12-14T08:09:20.266Z,57.46
2022-12-14T08:14:22.493Z,55.92
2022-12-14T08:19:24.052Z,54.80
2022-12-14T08:24:25.605Z,56.11
2022-12-14T08:29:27.316Z,56.80
2022-12-14T08:34:29.123Z,58.13
2022-12-14T08:39:30.687Z,57.00
2022-12-14T08:44:32.363Z,56.35
2022-12-14T08:49:33.950Z,57.58
2022-12-14T08:54:35.519Z,58.40
2022-12-14T09:00:00.642Z,59.47
2022-12-14T09:04:58.692Z,58.82
2022-12-14T09:10:00.379Z,61.17
2022-12-14T09:15:02.258Z,61.52
2022-12-14T09:20:05.743Z,60.83
2022-12-14T09:25:08.323Z,62.32
2022-12-14T09:30:10.088Z,62.34
2022-12-14T09:35:11.911Z,60.90
2022-12-14T09:40:14.184Z,60.99
2022-12-14T09:45:38.283Z,59.78
2022-12-14T09:50:40.540Z,59.78
2022-12-14T09:55:46.507Z,62.01
2022-12-14T10:01:11.231Z,61.87
2022-12-14T10:06:39.829Z,62.27
2022-12-14T10:11:56.784Z,62.13
2022-12-14T10:17:33.265Z,60.70
2022-12-14T10:22:42.467Z,60.10
2022-12-14T10:33:26.607Z,60.91
2022-12-14T10:38:54.081Z,59.01
2022-12-14T10:44:22.859Z,59.18
2022-12-14T10:49:42.148Z,59.57
2022-12-14T10:54:48.691Z,60.91
2022-12-14T11:00:07.299Z,61.23
2022-12-14T11:06:19.674Z,65.52
2022-12-14T11:11:24.113Z,65.60
2022-12-14T11:16:37.381Z,65.50
2022-12-14T11:21:39.507Z,63.59
2022-12-14T11:26:43.155Z,65.58
2022-12-14T11:31:50.519Z,64.39
2022-12-14T11:36:52.457Z,63.02
2022-12-14T11:42:02.872Z,64.05
2022-12-14T11:47:25.607Z,65.69
2022-12-14T11:52:41.763Z,65.26
2022-12-14T11:57:57.202Z,64.24
2022-12-14T12:02:59.464Z,63.90
2022-12-14T12:08:07.506Z,65.76
2022-12-14T12:13:32.428Z,64.43
2022-12-14T12:18:46.958Z,63.85
2022-12-14T12:23:51.635Z,62.83
2022-12-14T12:29:03.502Z,61.60
2022-12-14T12:34:17.340Z,63.38
2022-12-14T12:39:24.444Z,62.22
2022-12-14T12:44:50.426Z,63.13
2022-12-14T12:49:53.193Z,61.94
2022-12-14T12:54:57.795Z,61.61
2022-12-14T13:00:01.024Z,63.02
2022-12-14T13:05:43.997Z,62.62
2022-12-14T13:10:35.886Z,62.67
2022-12-14T13:15:45.888Z,62.32
2022-12-14T13:20:49.691Z,63.59
2022-12-14T13:25:54.060Z,63.21
2022-12-14T13:31:16.664Z,62.08
2022-12-14T13:36:45.757Z,61.45
2022-12-14T13:42:32.446Z,63.37
2022-12-14T13:47:41.302Z,63.32
2022-12-14T13:52:49.943Z,61.58
2022-12-14T13:57:51.858Z,62.78
2022-12-14T14:02:55.630Z,61.91
2022-12-14T14:08:01.547Z,63.36
2022-12-14T14:13:29.364Z,62.82
2022-12-14T14:18:35.092Z,62.91
2022-12-14T14:23:38.117Z,63.00
2022-12-14T14:28:40.075Z,62.12
2022-12-14T14:33:49.565Z,62.02
2022-12-14T14:38:52.707Z,61.26
2022-12-14T14:43:58.655Z,61.06
2022-12-14T14:49:00.966Z,62.42
2022-12-14T14:54:44.773Z,61.83
2022-12-14T14:59:51.144Z,60.32
2022-12-14T15:04:57.176Z,60.27
2022-12-14T15:10:07.621Z,58.88
2022-12-14T15:15:28.958Z,56.77
2022-12-14T15:20:30.978Z,56.81
2022-12-14T15:25:35.364Z,58.11
2022-12-14T15:30:37.371Z,58.34
2022-12-14T15:35:42.539Z,56.46
2022-12-14T15:41:03.284Z,57.07
2022-12-14T15:46:16.545Z,57.38
2022-12-14T15:51:18.715Z,57.38
2022-12-14T15:56:36.883Z,55.83
2022-12-14T16:01:41.123Z,56.93
2022-12-14T16:06:46.386Z,57.15
2022-12-14T16:12:00.914Z,57.28
2022-12-14T16:17:03.921Z,56.33
2022-12-14T16:22:11.557Z,55.99
2022-12-14T16:27:18.455Z,55.51
2022-12-14T16:32:21.977Z,55.28
2022-12-14T16:37:32.762Z,56.76
2022-12-14T16:42:38.198Z,57.66
2022-12-14T16:47:58.465Z,57.99
2022-12-14T16:53:23.750Z,57.21
2022-12-14T16:58:25.828Z,57.97
2022-12-14T17:03:30.775Z,58.45
2022-12-14T17:08:36.132Z,56.90
2022-12-14T17:13:37.772Z,56.78
2022-12-14T17:18:40.871Z,57.22
2022-12-14T17:23:43.663Z,58.26
2022-12-14T17:28:45.339Z,58.30
2022-12-14T17:33:51.606Z,59.94
2022-12-14T17:38:53.263Z,60.24
2022-12-14T17:43:58.090Z,58.77
2022-12-14T17:49:06.004Z,56.53
2022-12-14T17:54:19.276Z,57.45
2022-12-14T17:59:21.052Z,58.97
2022-12-14T18:04:22.675Z,59.67
2022-12-14T18:09:24.262Z,57.90
2022-12-14T18:14:25.993Z,60.63
2022-12-14T18:19:27.703Z,60.82
2022-12-14T18:24:29.301Z,60.30
2022-12-14T18:29:31.037Z,60.55
2022-12-14T18:34:42.067Z,60.52
2022-12-14T18:39:43.808Z,59.72
2022-12-14T18:44:51.142Z,60.97
2022-12-14T18:49:52.793Z,57.24
2022-12-14T18:54:55.443Z,57.94
2022-12-14T18:59:57.331Z,57.17
2022-12-14T19:04:58.942Z,56.83
2022-12-14T19:10:01.397Z,56.43
2022-12-14T19:15:03.576Z,58.15
2022-12-14T19:20:05.559Z,59.19
2022-12-14T19:25:11.257Z,57.85
2022-12-14T19:30:19.959Z,58.96
2022-12-14T19:35:23.019Z,58.92
2022-12-14T19:40:24.827Z,59.47
2022-12-14T19:45:26.581Z,56.26
2022-12-14T19:50:28.187Z,56.24
2022-12-14T19:55:30.100Z,55.51
2022-12-14T20:00:34.084Z,56.95
2022-12-14T20:05:35.867Z,58.41
2022-12-14T20:10:37.460Z,56.72
2022-12-14T20:15:39.190Z,55.89
2022-12-14T20:20:40.954Z,58.29
2022-12-14T20:25:42.714Z,58.49
2022-12-14T20:30:45.693Z,58.14
2022-12-14T20:35:51.525Z,59.58
2022-12-14T20:40:54.056Z,56.99
2022-12-14T20:45:55.895Z,56.87
2022-12-14T20:51:02.818Z,58.25
2022-12-14T20:56:05.870Z,57.04
2022-12-14T21:01:18.417Z,58.19
2022-12-14T21:06:22.719Z,57.26
2022-12-14T21:11:42.765Z,56.35
2022-12-14T21:16:44.505Z,55.70
2022-12-14T21:21:51.666Z,55.99
2022-12-14T21:26:55.346Z,56.48
2022-12-14T21:32:00.403Z,56.01
2022-12-14T21:37:02.339Z,56.90
2022-12-14T21:42:12.754Z,57.13
2022-12-14T21:47:22.579Z,57.58
2022-12-14T21:52:27.066Z,57.76
2022-12-14T21:57:50.419Z,57.88
2022-12-14T22:02:52.443Z,57.22
2022-12-14T22:07:54.071Z,57.97
2022-12-14T22:12:55.794Z,59.93
2022-12-14T22:17:57.382Z,59.21
2022-12-14T22:23:00.004Z,56.79
2022-12-14T22:28:01.563Z,57.78
2022-12-14T22:33:03.187Z,58.30
2022-12-14T22:38:04.744Z,58.22
2022-12-14T22:43:06.417Z,58.24
2022-12-14T22:48:08.115Z,59.56
2022-12-14T22:53:09.776Z,59.47
2022-12-14T22:58:12.185Z,59.14
2022-12-14T23:03:13.887Z,58.37
2022-12-14T23:08:15.640Z,57.73
2022-12-14T23:13:36.166Z,56.69
2022-12-14T23:18:56.445Z,57.37
2022-12-14T23:24:17.091Z,57.20
2022-12-14T23:29:37.266Z,56.17
2022-12-14T23:34:57.514Z,57.54
2022-12-14T23:40:17.697Z,56.58
2022-12-14T23:45:37.804Z,58.46
2022-12-14T23:50:57.968Z,55.86
2022-12-14T23:56:19.343Z,55.38
